Hauptseite
METAR-TAF:

METAR-TAF

Flughäfen :

RAF Barkston Heath

Barkston Heath, England

Breite: 52-58N, Länge: 000-34W, Höhe: 112 m

Beobachtung

Neuester Wetterbericht von vor 56 Minuten, um 14:50 UTC
Wind 8 kt aus Nord
Temperatur 20°C
Luftfeuchtigkeit 56%
Luftdruck 1020 hPa
Sichtweite 10 km oder mehr
Leicht bewölkt in der Höhe von 4000 ft

METAR: EGYE 231450Z 36008KT 9999 FEW040 20/11 Q1020 RMK BLU

Zeit: 16:46 (15:46 UTC)

Prognose

Neuester Wetterbericht von vor 2 Stunden und 14 Minuten, um 13:32 UTC
Gültige Prognose vom 23 um 15 UTC bis 23 um 18 UTC
Wind 9 kt aus Nord
Sichtweite 10 km oder mehr
Leicht bewölkt in der Höhe von 3000 ft
Aufgelockert bewölkt in der Höhe von 4500 ft

TAF: EGYE 231332Z 2315/2318 35009KT 9999 FEW030 SCT045

Wetterbeobachtungen und Prognosen von mehr als 4000 Flughäfen (METAR und TAF Bericht).

Die verfügbaren Stationen werden durch gelbe und rote Markierungen auf der Karte dargestellt.

Führen Sie die Maus auf sie, um den Namen der Station zu sehen.

Darauf klicken, um die Beobachtung von Wetterbeobachtungen und Prognosen zu sehen.

Um die Karte zu ändern : klicken Sie auf den grünen Tasten mit einem schwarzen Kreuz Zum Vergrößern, auf den grünen Button mit einem Gedankenstrich zu verkleinern, oder auf die grünen Pfeile für benachbarte Karten.


METAR-TAF: